sensor_id;sensor_type;location;lat;lon;timestamp;P1;durP1;ratioP1;P2;durP2;ratioP2
68176;SDS011;56478;50.982;7.032;2024-02-21T00:00:46;11.63;;;5.28;;
68176;SDS011;56478;50.982;7.032;2024-02-21T00:03:12;11.55;;;4.75;;
68176;SDS011;56478;50.982;7.032;2024-02-21T00:05:37;11.93;;;5.15;;
68176;SDS011;56478;50.982;7.032;2024-02-21T00:08:03;13.05;;;4.88;;
68176;SDS011;56478;50.982;7.032;2024-02-21T00:10:29;7.95;;;4.18;;
68176;SDS011;56478;50.982;7.032;2024-02-21T00:12:56;12.13;;;4.57;;
68176;SDS011;56478;50.982;7.032;2024-02-21T00:15:22;13.82;;;5.13;;
68176;SDS011;56478;50.982;7.032;2024-02-21T00:17:48;12.85;;;4.95;;
68176;SDS011;56478;50.982;7.032;2024-02-21T00:20:14;8.85;;;4.82;;
68176;SDS011;56478;50.982;7.032;2024-02-21T00:22:39;9.13;;;4.32;;
68176;SDS011;56478;50.982;7.032;2024-02-21T00:25:05;10.32;;;4.68;;
68176;SDS011;56478;50.982;7.032;2024-02-21T00:27:31;9.13;;;4.38;;
68176;SDS011;56478;50.982;7.032;2024-02-21T00:29:57;10.35;;;4.68;;
68176;SDS011;56478;50.982;7.032;2024-02-21T00:32:23;11.88;;;4.53;;
68176;SDS011;56478;50.982;7.032;2024-02-21T00:34:48;11.23;;;4.60;;
68176;SDS011;56478;50.982;7.032;2024-02-21T00:37:14;10.05;;;4.65;;
68176;SDS011;56478;50.982;7.032;2024-02-21T00:39:40;12.75;;;5.03;;
68176;SDS011;56478;50.982;7.032;2024-02-21T00:42:05;12.88;;;4.72;;
68176;SDS011;56478;50.982;7.032;2024-02-21T00:44:32;11.60;;;4.60;;
68176;SDS011;56478;50.982;7.032;2024-02-21T00:46:58;10.45;;;4.85;;
68176;SDS011;56478;50.982;7.032;2024-02-21T00:49:23;12.75;;;5.00;;
68176;SDS011;56478;50.982;7.032;2024-02-21T00:51:49;12.68;;;4.85;;
68176;SDS011;56478;50.982;7.032;2024-02-21T00:54:15;8.63;;;4.85;;
68176;SDS011;56478;50.982;7.032;2024-02-21T00:56:41;13.73;;;5.07;;
68176;SDS011;56478;50.982;7.032;2024-02-21T00:59:07;13.45;;;5.40;;
68176;SDS011;56478;50.982;7.032;2024-02-21T01:01:33;11.93;;;5.25;;
68176;SDS011;56478;50.982;7.032;2024-02-21T01:03:58;11.85;;;4.93;;
68176;SDS011;56478;50.982;7.032;2024-02-21T01:06:24;13.30;;;5.20;;
68176;SDS011;56478;50.982;7.032;2024-02-21T01:08:50;12.63;;;5.32;;
68176;SDS011;56478;50.982;7.032;2024-02-21T01:11:15;12.45;;;5.60;;
68176;SDS011;56478;50.982;7.032;2024-02-21T01:13:41;11.57;;;4.63;;
68176;SDS011;56478;50.982;7.032;2024-02-21T01:16:07;10.20;;;5.13;;
68176;SDS011;56478;50.982;7.032;2024-02-21T01:18:33;11.73;;;4.93;;
68176;SDS011;56478;50.982;7.032;2024-02-21T01:20:59;12.35;;;4.85;;
68176;SDS011;56478;50.982;7.032;2024-02-21T01:23:24;11.85;;;4.85;;
68176;SDS011;56478;50.982;7.032;2024-02-21T01:25:50;12.40;;;4.95;;
68176;SDS011;56478;50.982;7.032;2024-02-21T01:28:16;10.43;;;5.22;;
68176;SDS011;56478;50.982;7.032;2024-02-21T01:30:42;12.20;;;4.93;;
68176;SDS011;56478;50.982;7.032;2024-02-21T01:33:08;11.82;;;4.90;;
68176;SDS011;56478;50.982;7.032;2024-02-21T01:35:35;12.25;;;5.20;;
68176;SDS011;56478;50.982;7.032;2024-02-21T01:38:02;13.90;;;4.93;;
68176;SDS011;56478;50.982;7.032;2024-02-21T01:40:27;13.93;;;5.13;;
68176;SDS011;56478;50.982;7.032;2024-02-21T01:42:55;8.82;;;4.65;;
68176;SDS011;56478;50.982;7.032;2024-02-21T01:45:21;10.60;;;4.55;;
68176;SDS011;56478;50.982;7.032;2024-02-21T01:47:47;10.15;;;4.78;;
68176;SDS011;56478;50.982;7.032;2024-02-21T01:50:13;9.82;;;4.93;;
68176;SDS011;56478;50.982;7.032;2024-02-21T01:52:40;13.40;;;5.10;;
68176;SDS011;56478;50.982;7.032;2024-02-21T01:55:06;17.20;;;5.45;;
68176;SDS011;56478;50.982;7.032;2024-02-21T01:57:32;13.02;;;5.28;;
68176;SDS011;56478;50.982;7.032;2024-02-21T01:59:59;15.88;;;5.95;;
68176;SDS011;56478;50.982;7.032;2024-02-21T02:02:24;19.38;;;5.40;;
68176;SDS011;56478;50.982;7.032;2024-02-21T02:04:50;12.98;;;5.07;;
68176;SDS011;56478;50.982;7.032;2024-02-21T02:07:18;10.27;;;5.28;;
68176;SDS011;56478;50.982;7.032;2024-02-21T02:09:43;14.57;;;4.95;;
68176;SDS011;56478;50.982;7.032;2024-02-21T02:12:09;11.27;;;4.95;;
68176;SDS011;56478;50.982;7.032;2024-02-21T02:14:35;13.40;;;4.88;;
68176;SDS011;56478;50.982;7.032;2024-02-21T02:17:00;13.60;;;5.32;;
68176;SDS011;56478;50.982;7.032;2024-02-21T02:19:26;11.02;;;5.00;;
68176;SDS011;56478;50.982;7.032;2024-02-21T02:21:53;13.07;;;4.90;;
68176;SDS011;56478;50.982;7.032;2024-02-21T02:24:24;12.30;;;5.00;;
68176;SDS011;56478;50.982;7.032;2024-02-21T02:26:51;12.70;;;5.20;;
68176;SDS011;56478;50.982;7.032;2024-02-21T02:29:16;14.98;;;5.47;;
68176;SDS011;56478;50.982;7.032;2024-02-21T02:31:42;13.73;;;5.47;;
68176;SDS011;56478;50.982;7.032;2024-02-21T02:34:08;12.32;;;5.18;;
68176;SDS011;56478;50.982;7.032;2024-02-21T02:36:35;15.40;;;5.15;;
68176;SDS011;56478;50.982;7.032;2024-02-21T02:39:01;10.40;;;4.97;;
68176;SDS011;56478;50.982;7.032;2024-02-21T02:41:27;12.00;;;5.32;;
68176;SDS011;56478;50.982;7.032;2024-02-21T02:43:52;10.75;;;5.03;;
68176;SDS011;56478;50.982;7.032;2024-02-21T02:46:18;9.82;;;5.00;;
68176;SDS011;56478;50.982;7.032;2024-02-21T02:48:43;11.90;;;5.15;;
68176;SDS011;56478;50.982;7.032;2024-02-21T02:51:10;12.40;;;5.15;;
68176;SDS011;56478;50.982;7.032;2024-02-21T02:53:35;11.43;;;4.95;;
68176;SDS011;56478;50.982;7.032;2024-02-21T02:56:01;13.32;;;5.10;;
68176;SDS011;56478;50.982;7.032;2024-02-21T02:58:28;10.55;;;5.22;;
68176;SDS011;56478;50.982;7.032;2024-02-21T03:00:54;9.93;;;4.97;;
68176;SDS011;56478;50.982;7.032;2024-02-21T03:03:19;10.63;;;5.10;;
68176;SDS011;56478;50.982;7.032;2024-02-21T03:05:45;12.70;;;4.82;;
68176;SDS011;56478;50.982;7.032;2024-02-21T03:08:11;12.13;;;5.22;;
68176;SDS011;56478;50.982;7.032;2024-02-21T03:10:37;13.38;;;4.95;;
68176;SDS011;56478;50.982;7.032;2024-02-21T03:13:03;10.88;;;4.88;;
68176;SDS011;56478;50.982;7.032;2024-02-21T03:15:28;12.45;;;4.88;;
68176;SDS011;56478;50.982;7.032;2024-02-21T03:17:54;11.27;;;4.68;;
68176;SDS011;56478;50.982;7.032;2024-02-21T03:20:20;10.82;;;5.18;;
68176;SDS011;56478;50.982;7.032;2024-02-21T03:22:45;11.68;;;4.97;;
68176;SDS011;56478;50.982;7.032;2024-02-21T03:25:11;13.18;;;5.05;;
68176;SDS011;56478;50.982;7.032;2024-02-21T03:27:38;16.35;;;4.63;;
68176;SDS011;56478;50.982;7.032;2024-02-21T03:30:04;10.82;;;4.90;;
68176;SDS011;56478;50.982;7.032;2024-02-21T03:32:30;15.57;;;5.18;;
68176;SDS011;56478;50.982;7.032;2024-02-21T03:34:56;10.50;;;5.15;;
68176;SDS011;56478;50.982;7.032;2024-02-21T03:37:21;11.60;;;5.13;;
68176;SDS011;56478;50.982;7.032;2024-02-21T03:39:47;7.32;;;4.43;;
68176;SDS011;56478;50.982;7.032;2024-02-21T03:42:13;12.35;;;5.07;;
68176;SDS011;56478;50.982;7.032;2024-02-21T03:44:38;11.63;;;4.70;;
68176;SDS011;56478;50.982;7.032;2024-02-21T03:47:04;9.32;;;4.65;;
68176;SDS011;56478;50.982;7.032;2024-02-21T03:49:30;14.38;;;4.78;;
68176;SDS011;56478;50.982;7.032;2024-02-21T03:51:56;12.23;;;4.93;;
68176;SDS011;56478;50.982;7.032;2024-02-21T03:54:21;11.73;;;4.95;;
68176;SDS011;56478;50.982;7.032;2024-02-21T03:56:47;11.68;;;4.82;;
68176;SDS011;56478;50.982;7.032;2024-02-21T03:59:14;10.10;;;4.82;;
68176;SDS011;56478;50.982;7.032;2024-02-21T04:01:39;9.20;;;4.45;;
68176;SDS011;56478;50.982;7.032;2024-02-21T04:04:05;10.95;;;4.60;;
68176;SDS011;56478;50.982;7.032;2024-02-21T04:06:30;10.95;;;4.78;;
68176;SDS011;56478;50.982;7.032;2024-02-21T04:08:56;9.88;;;4.70;;
68176;SDS011;56478;50.982;7.032;2024-02-21T04:11:22;8.77;;;4.28;;
68176;SDS011;56478;50.982;7.032;2024-02-21T04:13:48;12.98;;;4.35;;
68176;SDS011;56478;50.982;7.032;2024-02-21T04:16:15;15.13;;;4.68;;
68176;SDS011;56478;50.982;7.032;2024-02-21T04:18:42;8.93;;;4.35;;
68176;SDS011;56478;50.982;7.032;2024-02-21T04:21:13;13.35;;;4.40;;
68176;SDS011;56478;50.982;7.032;2024-02-21T04:23:40;12.20;;;4.60;;
68176;SDS011;56478;50.982;7.032;2024-02-21T04:26:06;11.80;;;4.57;;
68176;SDS011;56478;50.982;7.032;2024-02-21T04:28:31;10.43;;;4.60;;
68176;SDS011;56478;50.982;7.032;2024-02-21T04:30:57;11.80;;;4.50;;
68176;SDS011;56478;50.982;7.032;2024-02-21T04:33:22;10.63;;;4.40;;
68176;SDS011;56478;50.982;7.032;2024-02-21T04:35:48;12.40;;;4.72;;
68176;SDS011;56478;50.982;7.032;2024-02-21T04:38:14;9.68;;;4.45;;
68176;SDS011;56478;50.982;7.032;2024-02-21T04:40:40;9.85;;;4.25;;
68176;SDS011;56478;50.982;7.032;2024-02-21T04:43:05;12.15;;;4.90;;
68176;SDS011;56478;50.982;7.032;2024-02-21T04:45:31;10.63;;;4.63;;
68176;SDS011;56478;50.982;7.032;2024-02-21T04:47:57;10.85;;;4.55;;
68176;SDS011;56478;50.982;7.032;2024-02-21T04:50:22;9.38;;;4.13;;
68176;SDS011;56478;50.982;7.032;2024-02-21T04:52:48;11.05;;;4.13;;
68176;SDS011;56478;50.982;7.032;2024-02-21T04:55:14;9.82;;;4.47;;
68176;SDS011;56478;50.982;7.032;2024-02-21T04:57:39;9.65;;;4.45;;
68176;SDS011;56478;50.982;7.032;2024-02-21T05:00:05;9.90;;;4.50;;
68176;SDS011;56478;50.982;7.032;2024-02-21T05:02:32;9.82;;;4.60;;
68176;SDS011;56478;50.982;7.032;2024-02-21T05:04:58;9.77;;;4.07;;
68176;SDS011;56478;50.982;7.032;2024-02-21T05:07:23;9.52;;;4.40;;
68176;SDS011;56478;50.982;7.032;2024-02-21T05:09:49;10.48;;;5.00;;
68176;SDS011;56478;50.982;7.032;2024-02-21T05:12:15;10.50;;;4.20;;
68176;SDS011;56478;50.982;7.032;2024-02-21T05:14:40;10.77;;;4.40;;
68176;SDS011;56478;50.982;7.032;2024-02-21T05:17:06;10.38;;;4.50;;
68176;SDS011;56478;50.982;7.032;2024-02-21T05:19:32;11.18;;;4.40;;
68176;SDS011;56478;50.982;7.032;2024-02-21T05:21:58;9.98;;;4.38;;
68176;SDS011;56478;50.982;7.032;2024-02-21T05:24:24;9.43;;;4.30;;
68176;SDS011;56478;50.982;7.032;2024-02-21T05:26:50;12.13;;;4.68;;
68176;SDS011;56478;50.982;7.032;2024-02-21T05:29:16;10.45;;;4.68;;
68176;SDS011;56478;50.982;7.032;2024-02-21T05:31:54;11.18;;;4.13;;
68176;SDS011;56478;50.982;7.032;2024-02-21T05:34:21;9.57;;;4.35;;
68176;SDS011;56478;50.982;7.032;2024-02-21T05:36:47;8.70;;;4.43;;
68176;SDS011;56478;50.982;7.032;2024-02-21T05:39:14;13.00;;;4.40;;
68176;SDS011;56478;50.982;7.032;2024-02-21T05:41:41;10.40;;;4.60;;
68176;SDS011;56478;50.982;7.032;2024-02-21T05:44:07;9.73;;;4.30;;
68176;SDS011;56478;50.982;7.032;2024-02-21T05:46:33;7.30;;;4.18;;
68176;SDS011;56478;50.982;7.032;2024-02-21T05:48:59;9.55;;;4.45;;
68176;SDS011;56478;50.982;7.032;2024-02-21T05:51:24;9.00;;;4.80;;
68176;SDS011;56478;50.982;7.032;2024-02-21T05:53:50;9.90;;;4.43;;
68176;SDS011;56478;50.982;7.032;2024-02-21T05:56:15;11.85;;;4.40;;
68176;SDS011;56478;50.982;7.032;2024-02-21T05:58:43;9.75;;;4.68;;
68176;SDS011;56478;50.982;7.032;2024-02-21T06:01:09;8.23;;;4.30;;
68176;SDS011;56478;50.982;7.032;2024-02-21T06:03:35;9.32;;;4.43;;
68176;SDS011;56478;50.982;7.032;2024-02-21T06:06:01;10.60;;;4.50;;
68176;SDS011;56478;50.982;7.032;2024-02-21T06:08:27;8.90;;;4.60;;
68176;SDS011;56478;50.982;7.032;2024-02-21T06:10:53;10.57;;;4.68;;
68176;SDS011;56478;50.982;7.032;2024-02-21T06:13:21;8.13;;;4.18;;
68176;SDS011;56478;50.982;7.032;2024-02-21T06:15:48;10.18;;;4.28;;
68176;SDS011;56478;50.982;7.032;2024-02-21T06:18:15;15.05;;;5.05;;
68176;SDS011;56478;50.982;7.032;2024-02-21T06:23:11;7.10;;;4.57;;
68176;SDS011;56478;50.982;7.032;2024-02-21T06:25:37;8.30;;;4.45;;
68176;SDS011;56478;50.982;7.032;2024-02-21T06:28:03;13.02;;;4.50;;
68176;SDS011;56478;50.982;7.032;2024-02-21T06:30:29;13.40;;;4.88;;
68176;SDS011;56478;50.982;7.032;2024-02-21T06:32:55;8.13;;;4.28;;
68176;SDS011;56478;50.982;7.032;2024-02-21T06:35:21;9.18;;;4.07;;
68176;SDS011;56478;50.982;7.032;2024-02-21T06:37:49;10.93;;;4.85;;
68176;SDS011;56478;50.982;7.032;2024-02-21T06:40:16;14.35;;;4.85;;
68176;SDS011;56478;50.982;7.032;2024-02-21T06:42:42;9.15;;;4.30;;
68176;SDS011;56478;50.982;7.032;2024-02-21T06:45:08;7.03;;;4.50;;
68176;SDS011;56478;50.982;7.032;2024-02-21T06:47:34;9.63;;;4.65;;
68176;SDS011;56478;50.982;7.032;2024-02-21T06:49:59;11.45;;;4.40;;
68176;SDS011;56478;50.982;7.032;2024-02-21T06:52:25;7.88;;;4.30;;
68176;SDS011;56478;50.982;7.032;2024-02-21T06:54:50;10.02;;;3.92;;
68176;SDS011;56478;50.982;7.032;2024-02-21T06:57:16;9.73;;;4.10;;
68176;SDS011;56478;50.982;7.032;2024-02-21T06:59:42;6.78;;;3.65;;
68176;SDS011;56478;50.982;7.032;2024-02-21T07:02:07;9.18;;;3.88;;
68176;SDS011;56478;50.982;7.032;2024-02-21T07:04:33;7.40;;;3.72;;
68176;SDS011;56478;50.982;7.032;2024-02-21T07:06:59;8.63;;;3.80;;
68176;SDS011;56478;50.982;7.032;2024-02-21T07:09:25;10.98;;;4.07;;
68176;SDS011;56478;50.982;7.032;2024-02-21T07:11:51;8.82;;;3.60;;
68176;SDS011;56478;50.982;7.032;2024-02-21T07:14:18;10.38;;;4.40;;
68176;SDS011;56478;50.982;7.032;2024-02-21T07:16:43;8.35;;;3.83;;
68176;SDS011;56478;50.982;7.032;2024-02-21T07:19:09;6.30;;;3.50;;
68176;SDS011;56478;50.982;7.032;2024-02-21T07:21:35;11.75;;;3.60;;
68176;SDS011;56478;50.982;7.032;2024-02-21T07:24:03;10.85;;;4.20;;
68176;SDS011;56478;50.982;7.032;2024-02-21T07:26:30;9.32;;;4.00;;
68176;SDS011;56478;50.982;7.032;2024-02-21T07:28:56;8.00;;;3.80;;
68176;SDS011;56478;50.982;7.032;2024-02-21T07:31:22;10.38;;;4.05;;
68176;SDS011;56478;50.982;7.032;2024-02-21T07:33:47;8.88;;;3.60;;
68176;SDS011;56478;50.982;7.032;2024-02-21T07:36:14;7.05;;;3.70;;
68176;SDS011;56478;50.982;7.032;2024-02-21T07:38:40;10.40;;;3.95;;
68176;SDS011;56478;50.982;7.032;2024-02-21T07:41:06;11.95;;;3.70;;
68176;SDS011;56478;50.982;7.032;2024-02-21T07:43:32;9.10;;;3.60;;
68176;SDS011;56478;50.982;7.032;2024-02-21T07:45:58;7.80;;;3.58;;
68176;SDS011;56478;50.982;7.032;2024-02-21T07:48:23;9.02;;;3.63;;
68176;SDS011;56478;50.982;7.032;2024-02-21T07:50:52;5.82;;;3.10;;
68176;SDS011;56478;50.982;7.032;2024-02-21T07:53:18;8.57;;;3.33;;
68176;SDS011;56478;50.982;7.032;2024-02-21T07:55:44;6.50;;;3.10;;
68176;SDS011;56478;50.982;7.032;2024-02-21T07:58:10;6.88;;;3.08;;
68176;SDS011;56478;50.982;7.032;2024-02-21T08:00:36;8.80;;;3.85;;
68176;SDS011;56478;50.982;7.032;2024-02-21T08:03:01;8.13;;;3.22;;
68176;SDS011;56478;50.982;7.032;2024-02-21T08:05:27;8.63;;;3.30;;
68176;SDS011;56478;50.982;7.032;2024-02-21T08:07:55;11.43;;;3.58;;
68176;SDS011;56478;50.982;7.032;2024-02-21T08:10:20;8.23;;;3.60;;
68176;SDS011;56478;50.982;7.032;2024-02-21T08:12:46;5.32;;;3.08;;
68176;SDS011;56478;50.982;7.032;2024-02-21T08:15:11;10.65;;;3.47;;
68176;SDS011;56478;50.982;7.032;2024-02-21T08:17:37;12.13;;;3.70;;
68176;SDS011;56478;50.982;7.032;2024-02-21T08:20:06;8.00;;;3.08;;
68176;SDS011;56478;50.982;7.032;2024-02-21T08:22:32;7.45;;;3.33;;
68176;SDS011;56478;50.982;7.032;2024-02-21T08:24:57;7.50;;;3.53;;
68176;SDS011;56478;50.982;7.032;2024-02-21T08:27:23;9.30;;;3.83;;
68176;SDS011;56478;50.982;7.032;2024-02-21T08:29:48;7.50;;;3.00;;
68176;SDS011;56478;50.982;7.032;2024-02-21T08:32:14;9.13;;;3.63;;
68176;SDS011;56478;50.982;7.032;2024-02-21T08:34:40;8.40;;;3.50;;
68176;SDS011;56478;50.982;7.032;2024-02-21T08:37:05;9.77;;;3.58;;
68176;SDS011;56478;50.982;7.032;2024-02-21T08:39:31;7.57;;;3.20;;
68176;SDS011;56478;50.982;7.032;2024-02-21T08:41:56;8.65;;;3.30;;
68176;SDS011;56478;50.982;7.032;2024-02-21T08:44:22;9.55;;;3.88;;
68176;SDS011;56478;50.982;7.032;2024-02-21T08:46:51;7.80;;;3.25;;
68176;SDS011;56478;50.982;7.032;2024-02-21T08:49:16;8.45;;;3.70;;
68176;SDS011;56478;50.982;7.032;2024-02-21T08:51:42;7.57;;;3.65;;
68176;SDS011;56478;50.982;7.032;2024-02-21T08:54:08;9.82;;;4.00;;
68176;SDS011;56478;50.982;7.032;2024-02-21T08:56:33;9.90;;;4.35;;
68176;SDS011;56478;50.982;7.032;2024-02-21T08:59:00;10.05;;;3.90;;
68176;SDS011;56478;50.982;7.032;2024-02-21T09:01:26;12.55;;;4.28;;
68176;SDS011;56478;50.982;7.032;2024-02-21T09:03:52;14.70;;;3.83;;
68176;SDS011;56478;50.982;7.032;2024-02-21T09:06:19;10.77;;;4.00;;
68176;SDS011;56478;50.982;7.032;2024-02-21T09:08:47;7.57;;;4.03;;
68176;SDS011;56478;50.982;7.032;2024-02-21T09:11:13;9.98;;;3.70;;
68176;SDS011;56478;50.982;7.032;2024-02-21T09:13:39;10.90;;;3.75;;
68176;SDS011;56478;50.982;7.032;2024-02-21T09:16:05;11.40;;;3.47;;
68176;SDS011;56478;50.982;7.032;2024-02-21T09:18:31;7.65;;;3.50;;
68176;SDS011;56478;50.982;7.032;2024-02-21T09:20:56;6.38;;;3.00;;
68176;SDS011;56478;50.982;7.032;2024-02-21T09:23:25;7.45;;;3.38;;
68176;SDS011;56478;50.982;7.032;2024-02-21T09:25:50;10.60;;;3.53;;
68176;SDS011;56478;50.982;7.032;2024-02-21T09:28:16;7.85;;;3.90;;
68176;SDS011;56478;50.982;7.032;2024-02-21T09:30:41;10.98;;;3.92;;
68176;SDS011;56478;50.982;7.032;2024-02-21T09:33:07;9.57;;;3.35;;
68176;SDS011;56478;50.982;7.032;2024-02-21T09:35:33;9.80;;;3.50;;
68176;SDS011;56478;50.982;7.032;2024-02-21T09:37:59;8.05;;;3.30;;
68176;SDS011;56478;50.982;7.032;2024-02-21T09:40:24;7.88;;;3.38;;
68176;SDS011;56478;50.982;7.032;2024-02-21T09:42:52;7.65;;;3.25;;
68176;SDS011;56478;50.982;7.032;2024-02-21T09:45:29;6.35;;;3.10;;
68176;SDS011;56478;50.982;7.032;2024-02-21T09:50:51;12.23;;;3.20;;
68176;SDS011;56478;50.982;7.032;2024-02-21T09:53:20;8.90;;;3.30;;
68176;SDS011;56478;50.982;7.032;2024-02-21T09:55:49;8.30;;;3.60;;
68176;SDS011;56478;50.982;7.032;2024-02-21T09:58:15;10.27;;;3.60;;
68176;SDS011;56478;50.982;7.032;2024-02-21T10:00:41;9.15;;;3.28;;
68176;SDS011;56478;50.982;7.032;2024-02-21T10:03:06;7.25;;;3.33;;
68176;SDS011;56478;50.982;7.032;2024-02-21T10:05:35;8.18;;;3.15;;
68176;SDS011;56478;50.982;7.032;2024-02-21T10:08:01;9.18;;;3.35;;
68176;SDS011;56478;50.982;7.032;2024-02-21T10:10:29;9.85;;;3.17;;
68176;SDS011;56478;50.982;7.032;2024-02-21T10:13:05;11.20;;;3.10;;
68176;SDS011;56478;50.982;7.032;2024-02-21T10:15:31;8.98;;;3.28;;
68176;SDS011;56478;50.982;7.032;2024-02-21T10:18:00;7.57;;;3.20;;
68176;SDS011;56478;50.982;7.032;2024-02-21T10:20:28;10.63;;;3.38;;
68176;SDS011;56478;50.982;7.032;2024-02-21T10:23:03;8.88;;;3.40;;
68176;SDS011;56478;50.982;7.032;2024-02-21T10:25:34;5.55;;;2.88;;
68176;SDS011;56478;50.982;7.032;2024-02-21T10:28:00;6.10;;;3.20;;
68176;SDS011;56478;50.982;7.032;2024-02-21T10:30:27;8.10;;;3.13;;
68176;SDS011;56478;50.982;7.032;2024-02-21T10:32:53;6.97;;;3.10;;
68176;SDS011;56478;50.982;7.032;2024-02-21T10:35:26;7.28;;;3.17;;
68176;SDS011;56478;50.982;7.032;2024-02-21T10:37:56;8.45;;;3.35;;
68176;SDS011;56478;50.982;7.032;2024-02-21T10:40:23;8.25;;;3.40;;
68176;SDS011;56478;50.982;7.032;2024-02-21T10:43:01;7.40;;;3.13;;
68176;SDS011;56478;50.982;7.032;2024-02-21T10:50:33;6.85;;;3.05;;
68176;SDS011;56478;50.982;7.032;2024-02-21T10:55:58;5.47;;;2.97;;
68176;SDS011;56478;50.982;7.032;2024-02-21T10:58:36;9.48;;;3.25;;
68176;SDS011;56478;50.982;7.032;2024-02-21T11:01:03;10.05;;;3.15;;
68176;SDS011;56478;50.982;7.032;2024-02-21T11:03:30;6.90;;;3.13;;
68176;SDS011;56478;50.982;7.032;2024-02-21T11:05:56;8.48;;;3.03;;
68176;SDS011;56478;50.982;7.032;2024-02-21T11:08:22;6.63;;;2.90;;
68176;SDS011;56478;50.982;7.032;2024-02-21T11:10:50;5.72;;;3.20;;
68176;SDS011;56478;50.982;7.032;2024-02-21T11:13:15;7.63;;;3.03;;
68176;SDS011;56478;50.982;7.032;2024-02-21T11:15:41;10.90;;;3.30;;
68176;SDS011;56478;50.982;7.032;2024-02-21T11:18:06;6.38;;;3.10;;
68176;SDS011;56478;50.982;7.032;2024-02-21T11:20:32;8.13;;;3.28;;
68176;SDS011;56478;50.982;7.032;2024-02-21T11:23:02;9.85;;;3.40;;
68176;SDS011;56478;50.982;7.032;2024-02-21T11:25:28;5.60;;;2.78;;
68176;SDS011;56478;50.982;7.032;2024-02-21T11:28:02;6.65;;;2.92;;
68176;SDS011;56478;50.982;7.032;2024-02-21T11:30:35;5.40;;;2.78;;
68176;SDS011;56478;50.982;7.032;2024-02-21T11:33:03;7.68;;;3.00;;
68176;SDS011;56478;50.982;7.032;2024-02-21T11:35:31;7.03;;;2.78;;
68176;SDS011;56478;50.982;7.032;2024-02-21T11:38:08;5.03;;;2.90;;
68176;SDS011;56478;50.982;7.032;2024-02-21T11:40:41;7.80;;;3.20;;
68176;SDS011;56478;50.982;7.032;2024-02-21T11:43:10;6.70;;;3.10;;
68176;SDS011;56478;50.982;7.032;2024-02-21T11:45:36;11.20;;;3.35;;
68176;SDS011;56478;50.982;7.032;2024-02-21T11:48:01;6.45;;;3.05;;
68176;SDS011;56478;50.982;7.032;2024-02-21T11:50:29;7.40;;;3.08;;
68176;SDS011;56478;50.982;7.032;2024-02-21T11:52:55;7.18;;;2.90;;
68176;SDS011;56478;50.982;7.032;2024-02-21T11:55:22;12.25;;;2.95;;
68176;SDS011;56478;50.982;7.032;2024-02-21T11:57:47;6.15;;;2.63;;
68176;SDS011;56478;50.982;7.032;2024-02-21T12:00:13;7.03;;;2.70;;
68176;SDS011;56478;50.982;7.032;2024-02-21T12:02:45;6.60;;;2.80;;
68176;SDS011;56478;50.982;7.032;2024-02-21T12:05:12;7.18;;;2.75;;
68176;SDS011;56478;50.982;7.032;2024-02-21T12:07:38;6.15;;;2.88;;
68176;SDS011;56478;50.982;7.032;2024-02-21T12:10:10;5.35;;;2.90;;
68176;SDS011;56478;50.982;7.032;2024-02-21T12:12:36;6.90;;;2.83;;
68176;SDS011;56478;50.982;7.032;2024-02-21T12:15:05;7.35;;;3.05;;
68176;SDS011;56478;50.982;7.032;2024-02-21T12:17:35;9.15;;;3.20;;
68176;SDS011;56478;50.982;7.032;2024-02-21T12:20:04;7.60;;;3.00;;
68176;SDS011;56478;50.982;7.032;2024-02-21T12:22:37;5.38;;;2.60;;
68176;SDS011;56478;50.982;7.032;2024-02-21T12:25:03;6.93;;;2.90;;
68176;SDS011;56478;50.982;7.032;2024-02-21T12:27:29;5.72;;;2.70;;
68176;SDS011;56478;50.982;7.032;2024-02-21T12:29:55;7.55;;;2.58;;
68176;SDS011;56478;50.982;7.032;2024-02-21T12:32:20;5.35;;;2.60;;
68176;SDS011;56478;50.982;7.032;2024-02-21T12:34:46;6.85;;;2.83;;
68176;SDS011;56478;50.982;7.032;2024-02-21T12:37:11;9.32;;;3.17;;
68176;SDS011;56478;50.982;7.032;2024-02-21T12:39:38;13.50;;;2.80;;
68176;SDS011;56478;50.982;7.032;2024-02-21T12:42:04;5.35;;;2.88;;
68176;SDS011;56478;50.982;7.032;2024-02-21T12:44:29;5.88;;;2.60;;
68176;SDS011;56478;50.982;7.032;2024-02-21T12:46:55;5.15;;;2.53;;
68176;SDS011;56478;50.982;7.032;2024-02-21T12:49:20;7.18;;;2.90;;
68176;SDS011;56478;50.982;7.032;2024-02-21T12:51:46;7.25;;;2.50;;
68176;SDS011;56478;50.982;7.032;2024-02-21T12:54:12;8.90;;;3.00;;
68176;SDS011;56478;50.982;7.032;2024-02-21T12:56:37;6.45;;;2.13;;
68176;SDS011;56478;50.982;7.032;2024-02-21T12:59:04;11.13;;;2.50;;
68176;SDS011;56478;50.982;7.032;2024-02-21T13:01:30;4.80;;;2.25;;
68176;SDS011;56478;50.982;7.032;2024-02-21T13:03:56;6.90;;;3.08;;
68176;SDS011;56478;50.982;7.032;2024-02-21T13:06:22;4.72;;;2.50;;
68176;SDS011;56478;50.982;7.032;2024-02-21T13:08:48;3.55;;;2.38;;
68176;SDS011;56478;50.982;7.032;2024-02-21T13:11:16;8.02;;;3.28;;
68176;SDS011;56478;50.982;7.032;2024-02-21T13:13:41;11.10;;;3.25;;
68176;SDS011;56478;50.982;7.032;2024-02-21T13:16:07;7.88;;;3.03;;
68176;SDS011;56478;50.982;7.032;2024-02-21T13:18:32;6.20;;;2.70;;
68176;SDS011;56478;50.982;7.032;2024-02-21T13:21:00;3.83;;;2.20;;
68176;SDS011;56478;50.982;7.032;2024-02-21T13:23:26;6.68;;;2.75;;
68176;SDS011;56478;50.982;7.032;2024-02-21T13:25:51;6.47;;;2.55;;
68176;SDS011;56478;50.982;7.032;2024-02-21T13:28:17;5.43;;;2.22;;
68176;SDS011;56478;50.982;7.032;2024-02-21T13:30:43;6.28;;;2.47;;
68176;SDS011;56478;50.982;7.032;2024-02-21T13:33:08;4.13;;;2.38;;
68176;SDS011;56478;50.982;7.032;2024-02-21T13:35:35;4.63;;;2.53;;
68176;SDS011;56478;50.982;7.032;2024-02-21T13:38:01;8.40;;;2.88;;
68176;SDS011;56478;50.982;7.032;2024-02-21T13:40:28;6.28;;;2.83;;
68176;SDS011;56478;50.982;7.032;2024-02-21T13:42:53;5.47;;;3.38;;
68176;SDS011;56478;50.982;7.032;2024-02-21T13:45:19;7.35;;;2.75;;
68176;SDS011;56478;50.982;7.032;2024-02-21T13:47:44;6.30;;;2.60;;
68176;SDS011;56478;50.982;7.032;2024-02-21T13:50:10;4.57;;;2.45;;
68176;SDS011;56478;50.982;7.032;2024-02-21T13:52:39;4.10;;;2.50;;
68176;SDS011;56478;50.982;7.032;2024-02-21T13:55:05;6.63;;;2.90;;
68176;SDS011;56478;50.982;7.032;2024-02-21T13:57:36;5.40;;;2.67;;
68176;SDS011;56478;50.982;7.032;2024-02-21T14:00:03;6.07;;;3.00;;
68176;SDS011;56478;50.982;7.032;2024-02-21T14:02:30;8.32;;;2.60;;
68176;SDS011;56478;50.982;7.032;2024-02-21T14:04:55;5.57;;;2.65;;
68176;SDS011;56478;50.982;7.032;2024-02-21T14:07:21;7.35;;;2.65;;
68176;SDS011;56478;50.982;7.032;2024-02-21T14:09:47;4.30;;;2.60;;
68176;SDS011;56478;50.982;7.032;2024-02-21T14:12:13;9.73;;;3.00;;
68176;SDS011;56478;50.982;7.032;2024-02-21T14:14:39;6.05;;;2.95;;
68176;SDS011;56478;50.982;7.032;2024-02-21T14:17:04;6.72;;;2.70;;
68176;SDS011;56478;50.982;7.032;2024-02-21T14:19:30;7.53;;;2.90;;
68176;SDS011;56478;50.982;7.032;2024-02-21T14:21:55;4.97;;;2.70;;
68176;SDS011;56478;50.982;7.032;2024-02-21T14:24:22;5.65;;;2.67;;
68176;SDS011;56478;50.982;7.032;2024-02-21T14:26:48;10.60;;;3.10;;
68176;SDS011;56478;50.982;7.032;2024-02-21T14:29:14;12.23;;;2.90;;
68176;SDS011;56478;50.982;7.032;2024-02-21T14:31:39;8.25;;;2.67;;
68176;SDS011;56478;50.982;7.032;2024-02-21T14:34:05;8.10;;;2.88;;
68176;SDS011;56478;50.982;7.032;2024-02-21T14:36:32;12.35;;;2.95;;
68176;SDS011;56478;50.982;7.032;2024-02-21T14:38:58;5.65;;;2.78;;
68176;SDS011;56478;50.982;7.032;2024-02-21T14:41:24;6.53;;;2.50;;
68176;SDS011;56478;50.982;7.032;2024-02-21T14:43:50;5.47;;;2.67;;
68176;SDS011;56478;50.982;7.032;2024-02-21T14:46:16;7.30;;;3.10;;
68176;SDS011;56478;50.982;7.032;2024-02-21T14:48:42;5.90;;;2.55;;
68176;SDS011;56478;50.982;7.032;2024-02-21T14:51:08;5.22;;;2.70;;